VE89 weather

Darbhanga Airport
Bihar, India

Public forecast

Using degrees Celsius for public forecast. Weather courtesy of forecast.io.

METAR (pilot weather report)

Closest report is Lok Nayak Jayaprakash Airport, 57.5 nm (106.5 km) SW. Retrieved 2019/03/21 16:00 UTC (11 minutes ago):

VEPT 211600Z 00000KT 4000 HZ NSC 24/14 Q1009 NOSIG

TAF (pilot weather forecast)

Closest forecast is Lok Nayak Jayaprakash Airport, 57.5 nm (106.5 km) SW. Retrieved 2019/03/21 12:36 UTC (4 hours ago):

TAF VEPT 211100Z 2112/2218 26004KT 5000 HZ NSC BECMG 2116/2118 00000KT 4000 HZ BECMG 2200/2202 3000 HZ SCT020 BECMG 2204/2206 27006KT 4000 HZ NSC BECMG 2209/2211 32008KT 5000 HZ BECMG 2216/2218 00000KT 4000 HZ